createdAt,value
2022-09-30T00:00:27.183Z,4.30
2022-09-30T00:03:13.033Z,3.78
2022-09-30T00:06:08.416Z,3.28
2022-09-30T00:08:55.100Z,3.13
2022-09-30T00:11:41.763Z,3.30
2022-09-30T00:14:27.257Z,3.75
2022-09-30T00:17:13.062Z,3.35
2022-09-30T00:19:58.388Z,3.40
2022-09-30T00:22:44.979Z,3.05
2022-09-30T00:25:30.234Z,3.53
2022-09-30T00:28:16.582Z,3.13
2022-09-30T00:31:05.391Z,2.88
2022-09-30T00:34:07.140Z,3.80
2022-09-30T00:36:55.777Z,4.15
2022-09-30T00:39:41.462Z,4.18
2022-09-30T00:42:29.567Z,4.40
2022-09-30T00:45:18.059Z,4.88
2022-09-30T00:48:30.915Z,5.40
2022-09-30T00:51:16.564Z,4.32
2022-09-30T00:54:06.993Z,5.18
2022-09-30T00:56:56.844Z,4.38
2022-09-30T00:59:45.370Z,4.40
2022-09-30T01:02:30.815Z,4.82
2022-09-30T01:05:16.368Z,4.60
2022-09-30T01:08:04.550Z,5.00
2022-09-30T01:10:50.415Z,6.43
2022-09-30T01:13:39.271Z,6.53
2022-09-30T01:16:44.218Z,6.40
2022-09-30T01:19:59.128Z,6.63
2022-09-30T01:23:11.729Z,6.87
2022-09-30T01:26:09.229Z,5.82
2022-09-30T01:29:28.745Z,5.55
2022-09-30T01:32:32.731Z,4.68
2022-09-30T01:35:37.256Z,4.25
2022-09-30T01:38:34.376Z,4.38
2022-09-30T01:41:32.442Z,4.07
2022-09-30T01:44:32.036Z,4.15
2022-09-30T01:47:30.050Z,4.03
2022-09-30T01:50:15.919Z,5.05
2022-09-30T01:53:17.518Z,4.35
2022-09-30T01:56:12.418Z,4.28
2022-09-30T01:59:06.633Z,4.43
2022-09-30T02:02:24.663Z,4.90
2022-09-30T02:05:19.610Z,4.20
2022-09-30T02:08:12.966Z,4.63
2022-09-30T02:11:04.176Z,4.78
2022-09-30T02:14:05.961Z,5.15
2022-09-30T02:17:09.820Z,5.40
2022-09-30T02:20:10.331Z,5.00
2022-09-30T02:23:11.193Z,4.90
2022-09-30T02:26:10.332Z,5.20
2022-09-30T02:29:05.780Z,5.13
2022-09-30T02:34:42.375Z,5.60
2022-09-30T02:37:36.732Z,6.22
2022-09-30T02:40:42.087Z,5.78
2022-09-30T02:43:27.577Z,5.93
2022-09-30T02:46:33.963Z,6.10
2022-09-30T02:49:38.181Z,6.32
2022-09-30T02:52:48.642Z,7.28
2022-09-30T02:55:44.142Z,6.72
2022-09-30T02:58:30.367Z,7.22
2022-09-30T03:01:17.235Z,6.85
2022-09-30T03:04:09.740Z,7.35
2022-09-30T03:06:55.865Z,6.32
2022-09-30T03:09:41.506Z,7.32
2022-09-30T03:13:03.842Z,7.13
2022-09-30T03:16:02.349Z,6.55
2022-09-30T03:18:59.547Z,7.60
2022-09-30T03:22:10.927Z,8.27
2022-09-30T03:25:07.220Z,8.30
2022-09-30T03:28:00.236Z,8.13
2022-09-30T03:31:06.027Z,9.05
2022-09-30T03:37:10.375Z,8.02
2022-09-30T03:40:17.682Z,7.57
2022-09-30T03:43:18.474Z,6.82
2022-09-30T03:46:10.609Z,9.40
2022-09-30T03:49:01.263Z,9.27
2022-09-30T03:51:46.673Z,9.52
2022-09-30T03:54:32.999Z,8.15
2022-09-30T03:57:18.609Z,7.40
2022-09-30T04:00:05.710Z,7.70
2022-09-30T04:02:55.803Z,7.70
2022-09-30T04:05:43.640Z,7.32
2022-09-30T04:08:33.635Z,7.03
2022-09-30T04:11:19.731Z,6.75
2022-09-30T04:14:05.970Z,6.40
2022-09-30T04:16:53.898Z,6.43
2022-09-30T04:19:40.451Z,5.97
2022-09-30T04:22:26.648Z,7.53
2022-09-30T04:25:12.913Z,7.78
2022-09-30T04:27:58.642Z,6.32
2022-09-30T04:30:44.039Z,7.07
2022-09-30T04:33:29.788Z,7.80
2022-09-30T04:36:15.592Z,6.18
2022-09-30T04:39:01.404Z,6.35
2022-09-30T04:41:46.476Z,6.07
2022-09-30T04:44:32.184Z,6.50
2022-09-30T04:47:17.821Z,6.30
2022-09-30T04:50:03.989Z,5.88
2022-09-30T04:52:49.583Z,5.97
2022-09-30T04:55:35.550Z,5.28
2022-09-30T04:58:21.023Z,6.72
2022-09-30T05:01:08.885Z,7.18
2022-09-30T05:03:54.796Z,7.13
2022-09-30T05:06:42.683Z,6.60
2022-09-30T05:09:27.948Z,7.20
2022-09-30T05:12:14.571Z,6.80
2022-09-30T05:15:00.504Z,7.63
2022-09-30T05:17:49.609Z,8.65
2022-09-30T05:20:35.722Z,7.88
2022-09-30T05:23:21.635Z,8.30
2022-09-30T05:26:11.722Z,8.20
2022-09-30T05:28:58.176Z,8.38
2022-09-30T05:31:43.425Z,8.32
2022-09-30T05:34:29.568Z,7.95
2022-09-30T05:37:15.575Z,7.70
2022-09-30T05:40:01.356Z,11.13
2022-09-30T05:42:47.569Z,8.98
2022-09-30T05:45:33.892Z,8.43
2022-09-30T05:48:20.217Z,7.57
2022-09-30T05:51:05.902Z,7.88
2022-09-30T05:53:51.881Z,8.20
2022-09-30T05:56:38.462Z,7.95
2022-09-30T05:59:24.407Z,8.05
2022-09-30T06:02:11.121Z,7.53
2022-09-30T06:04:56.696Z,7.63
2022-09-30T06:07:42.351Z,7.45
2022-09-30T06:10:28.392Z,6.97
2022-09-30T06:13:14.040Z,9.13
2022-09-30T06:16:01.713Z,7.80
2022-09-30T06:18:47.356Z,7.20
2022-09-30T06:21:33.218Z,7.82
2022-09-30T06:24:19.120Z,7.13
2022-09-30T06:27:04.603Z,7.65
2022-09-30T06:29:50.250Z,7.70
2022-09-30T06:32:35.850Z,8.85
2022-09-30T06:35:24.075Z,9.15
2022-09-30T06:38:10.384Z,6.15
2022-09-30T06:40:56.740Z,6.80
2022-09-30T06:43:45.842Z,7.72
2022-09-30T06:46:40.195Z,9.32
2022-09-30T06:49:42.694Z,7.55
2022-09-30T06:52:31.126Z,8.18
2022-09-30T06:55:16.960Z,7.78
2022-09-30T06:58:02.598Z,26.48
2022-09-30T07:01:01.642Z,10.15
2022-09-30T07:03:50.329Z,20.58
2022-09-30T07:06:39.000Z,9.77
2022-09-30T07:09:25.762Z,9.48
2022-09-30T07:12:11.210Z,9.25
2022-09-30T07:14:57.228Z,8.30
2022-09-30T07:17:44.038Z,7.60
2022-09-30T07:20:29.194Z,9.38
2022-09-30T07:23:14.521Z,11.18
2022-09-30T07:26:03.375Z,9.70
2022-09-30T07:28:49.977Z,15.93
2022-09-30T07:31:36.000Z,8.73
2022-09-30T07:34:22.164Z,8.68
2022-09-30T07:37:07.613Z,14.18
2022-09-30T07:39:53.405Z,9.68
2022-09-30T07:42:46.356Z,9.43
2022-09-30T07:45:31.551Z,10.52
2022-09-30T07:48:35.567Z,10.02
2022-09-30T07:51:23.129Z,8.18
2022-09-30T07:54:13.632Z,8.25
2022-09-30T07:57:15.672Z,9.05
2022-09-30T08:00:12.033Z,9.90
2022-09-30T08:03:02.698Z,10.48
2022-09-30T08:05:48.636Z,9.55
2022-09-30T08:08:34.463Z,9.90
2022-09-30T08:11:20.471Z,9.25
2022-09-30T08:14:05.868Z,12.52
2022-09-30T08:16:52.228Z,10.52
2022-09-30T08:19:38.181Z,9.85
2022-09-30T08:22:23.977Z,9.65
2022-09-30T08:25:09.449Z,12.18
2022-09-30T08:27:55.002Z,12.05
2022-09-30T08:30:41.161Z,21.15
2022-09-30T08:33:26.366Z,17.27
2022-09-30T08:36:20.382Z,12.32
2022-09-30T08:39:06.246Z,11.43
2022-09-30T08:42:36.537Z,12.05
2022-09-30T08:45:52.587Z,8.88
2022-09-30T08:49:07.434Z,13.00
2022-09-30T08:51:54.306Z,8.73
2022-09-30T08:54:44.328Z,8.30
2022-09-30T08:57:37.052Z,8.85
2022-09-30T09:00:23.005Z,7.65
2022-09-30T09:03:13.126Z,7.13
2022-09-30T09:06:08.871Z,7.53
2022-09-30T09:08:56.972Z,7.32
2022-09-30T09:12:22.272Z,7.78
2022-09-30T09:15:26.635Z,7.10
2022-09-30T09:18:29.417Z,7.05
2022-09-30T09:21:31.357Z,7.88
2022-09-30T09:24:30.545Z,7.35
2022-09-30T09:27:34.083Z,7.35
2022-09-30T09:30:24.579Z,7.40
2022-09-30T09:33:22.001Z,6.80
2022-09-30T09:36:39.055Z,6.53
2022-09-30T09:39:37.616Z,7.07
2022-09-30T09:42:42.190Z,7.47
2022-09-30T09:45:43.341Z,7.47
2022-09-30T09:48:30.747Z,7.13
2022-09-30T09:51:33.384Z,6.50
2022-09-30T09:54:21.560Z,5.95
2022-09-30T09:57:12.768Z,4.50
2022-09-30T10:00:29.209Z,5.00
2022-09-30T10:03:24.362Z,3.78
2022-09-30T10:06:12.876Z,4.40
2022-09-30T10:08:58.092Z,3.97
2022-09-30T10:11:43.528Z,4.00
2022-09-30T10:14:29.300Z,4.63
2022-09-30T10:17:26.254Z,4.05
2022-09-30T10:20:32.996Z,4.53
2022-09-30T10:23:33.542Z,4.10
2022-09-30T10:26:25.273Z,4.30
2022-09-30T10:29:28.498Z,5.03
2022-09-30T10:32:14.072Z,4.82
2022-09-30T10:35:16.955Z,4.30
2022-09-30T10:38:02.652Z,5.22
2022-09-30T10:40:51.170Z,4.70
2022-09-30T10:43:51.400Z,4.93
2022-09-30T10:46:39.906Z,4.50
2022-09-30T10:49:33.150Z,3.97
2022-09-30T10:52:24.885Z,3.97
2022-09-30T10:55:30.814Z,3.70
2022-09-30T10:58:39.948Z,3.80
2022-09-30T11:01:39.326Z,3.65
2022-09-30T11:04:35.495Z,3.10
2022-09-30T11:07:44.463Z,3.20
2022-09-30T11:11:10.463Z,3.40
2022-09-30T11:14:13.546Z,2.50
2022-09-30T11:17:20.486Z,2.30
2022-09-30T11:20:31.169Z,2.85
2022-09-30T11:23:40.742Z,2.00
2022-09-30T11:26:30.076Z,2.03
2022-09-30T11:29:24.708Z,1.70
2022-09-30T11:32:34.456Z,1.60
2022-09-30T11:35:57.448Z,1.90
2022-09-30T11:39:43.964Z,1.90
2022-09-30T11:45:48.331Z,1.60
2022-09-30T11:49:11.023Z,2.00
2022-09-30T11:52:06.397Z,1.70
2022-09-30T11:55:06.290Z,1.60
2022-09-30T11:57:58.008Z,1.60
2022-09-30T12:00:49.186Z,1.60
2022-09-30T12:03:40.317Z,1.50
2022-09-30T12:06:43.893Z,1.65
2022-09-30T12:09:37.257Z,1.50
2022-09-30T12:12:22.814Z,1.50
2022-09-30T12:15:15.471Z,1.77
2022-09-30T12:18:10.927Z,1.90
2022-09-30T12:21:20.780Z,1.42
2022-09-30T12:24:16.741Z,1.38
2022-09-30T12:27:03.516Z,1.02
2022-09-30T12:30:15.269Z,1.40
2022-09-30T12:33:43.359Z,1.60
2022-09-30T12:36:53.714Z,1.67
2022-09-30T12:40:18.987Z,1.55
2022-09-30T12:43:10.345Z,2.63
2022-09-30T12:46:17.073Z,1.90
2022-09-30T12:49:09.818Z,1.30
2022-09-30T12:52:05.362Z,2.42
2022-09-30T12:54:58.988Z,1.73
2022-09-30T12:57:44.285Z,1.73
2022-09-30T13:00:34.609Z,2.10
2022-09-30T13:03:20.950Z,1.17
2022-09-30T13:06:06.856Z,1.17
2022-09-30T13:09:17.811Z,1.27
2022-09-30T13:12:02.959Z,1.25
2022-09-30T13:14:48.275Z,1.10
2022-09-30T13:17:36.210Z,1.20
2022-09-30T13:20:51.102Z,1.38
2022-09-30T13:23:44.835Z,1.20
2022-09-30T13:26:44.756Z,1.30
2022-09-30T13:29:35.310Z,1.20
2022-09-30T13:32:37.764Z,1.35
2022-09-30T13:35:44.445Z,1.20
2022-09-30T13:38:40.428Z,1.30
2022-09-30T13:41:26.877Z,1.40
2022-09-30T13:44:20.547Z,1.75
2022-09-30T13:47:27.578Z,2.08
2022-09-30T13:50:20.533Z,1.70
2022-09-30T13:53:12.650Z,1.60
2022-09-30T13:56:01.736Z,1.55
2022-09-30T13:58:59.761Z,1.77
2022-09-30T14:02:03.876Z,1.63
2022-09-30T14:05:15.947Z,1.40
2022-09-30T14:08:19.335Z,1.52
2022-09-30T14:11:13.396Z,1.45
2022-09-30T14:14:12.028Z,1.50
2022-09-30T14:17:19.272Z,1.55
2022-09-30T14:20:30.635Z,1.60
2022-09-30T14:23:18.773Z,1.40
2022-09-30T14:26:52.978Z,1.30
2022-09-30T14:30:03.108Z,1.35
2022-09-30T14:32:56.828Z,1.20
2022-09-30T14:35:43.296Z,1.00
2022-09-30T14:38:32.043Z,1.10
2022-09-30T14:41:22.707Z,1.17
2022-09-30T14:44:17.176Z,1.20
2022-09-30T14:47:04.508Z,1.33
2022-09-30T14:49:50.264Z,1.20
2022-09-30T14:52:41.681Z,1.20
2022-09-30T14:55:30.906Z,1.58
2022-09-30T14:58:30.450Z,2.05
2022-09-30T15:01:17.786Z,1.60
2022-09-30T15:04:11.281Z,1.50
2022-09-30T15:06:59.827Z,4.00
2022-09-30T15:09:47.614Z,2.42
2022-09-30T15:12:39.108Z,3.05
2022-09-30T15:15:37.996Z,1.20
2022-09-30T15:18:32.990Z,1.17
2022-09-30T15:21:18.631Z,1.20
2022-09-30T15:24:04.321Z,1.15
2022-09-30T15:26:52.208Z,1.10
2022-09-30T15:29:37.994Z,1.00
2022-09-30T15:32:26.183Z,1.02
2022-09-30T15:35:17.054Z,1.10
2022-09-30T15:38:16.335Z,1.45
2022-09-30T15:41:06.286Z,1.10
2022-09-30T15:44:53.434Z,1.20
2022-09-30T15:47:55.562Z,1.10
2022-09-30T15:50:49.992Z,0.88
2022-09-30T15:53:38.247Z,0.98
2022-09-30T15:56:31.119Z,1.50
2022-09-30T15:59:17.016Z,1.55
2022-09-30T16:02:02.757Z,1.90
2022-09-30T16:04:51.992Z,1.70
2022-09-30T16:07:37.407Z,2.00
2022-09-30T16:10:23.153Z,1.67
2022-09-30T16:13:14.652Z,1.52
2022-09-30T16:16:02.120Z,1.88
2022-09-30T16:18:49.134Z,1.85
2022-09-30T16:21:44.806Z,1.60
2022-09-30T16:24:30.165Z,1.35
2022-09-30T16:27:23.319Z,1.40
2022-09-30T16:30:14.648Z,1.50
2022-09-30T16:33:05.043Z,1.80
2022-09-30T16:35:50.761Z,1.83
2022-09-30T16:38:36.624Z,1.80
2022-09-30T16:41:22.944Z,1.80
2022-09-30T16:44:09.277Z,2.00
2022-09-30T16:46:54.493Z,2.13
2022-09-30T16:49:42.698Z,2.10
2022-09-30T16:52:28.345Z,2.20
2022-09-30T16:57:59.798Z,2.20
2022-09-30T17:00:45.557Z,2.28
2022-09-30T17:03:31.296Z,2.33
2022-09-30T17:06:19.390Z,2.53
2022-09-30T17:09:05.349Z,2.50
2022-09-30T17:11:53.283Z,2.40
2022-09-30T17:14:42.076Z,3.20
2022-09-30T17:17:27.494Z,2.40
2022-09-30T17:20:13.131Z,2.63
2022-09-30T17:22:58.559Z,2.55
2022-09-30T17:25:44.004Z,2.80
2022-09-30T17:28:29.422Z,3.28
2022-09-30T17:31:15.324Z,2.85
2022-09-30T17:34:05.382Z,3.15
2022-09-30T17:36:51.369Z,3.90
2022-09-30T17:39:37.027Z,12.27
2022-09-30T17:42:40.840Z,8.93
2022-09-30T17:45:28.042Z,13.32
2022-09-30T17:48:16.144Z,10.02
2022-09-30T17:51:01.761Z,4.30
2022-09-30T17:53:48.260Z,6.18
2022-09-30T17:56:34.825Z,4.38
2022-09-30T17:59:21.857Z,3.75
2022-09-30T18:02:07.486Z,3.67
2022-09-30T18:04:54.436Z,2.55
2022-09-30T18:07:40.137Z,3.10
2022-09-30T18:10:26.927Z,2.28
2022-09-30T18:13:12.794Z,2.72
2022-09-30T18:16:01.932Z,2.20
2022-09-30T18:18:47.669Z,2.30
2022-09-30T18:21:36.179Z,2.30
2022-09-30T18:24:41.862Z,2.30
2022-09-30T18:27:28.241Z,2.92
2022-09-30T18:30:13.727Z,3.55
2022-09-30T18:32:59.414Z,2.65
2022-09-30T18:35:44.980Z,3.45
2022-09-30T18:38:30.657Z,2.88
2022-09-30T18:41:16.142Z,2.88
2022-09-30T18:44:02.946Z,3.47
2022-09-30T18:46:48.838Z,4.65
2022-09-30T18:49:34.563Z,5.07
2022-09-30T18:52:19.944Z,4.70
2022-09-30T18:55:06.428Z,3.70
2022-09-30T18:57:56.086Z,4.03
2022-09-30T19:00:41.917Z,3.90
2022-09-30T19:03:31.680Z,3.67
2022-09-30T19:06:17.349Z,3.55
2022-09-30T19:09:03.437Z,3.85
2022-09-30T19:11:51.449Z,3.40
2022-09-30T19:14:36.792Z,3.78
2022-09-30T19:17:22.309Z,3.63
2022-09-30T19:20:08.460Z,4.30
2022-09-30T19:22:53.775Z,3.75
2022-09-30T19:25:39.569Z,3.70
2022-09-30T19:28:24.774Z,3.78
2022-09-30T19:31:15.349Z,3.80
2022-09-30T19:34:02.054Z,3.80
2022-09-30T19:36:51.915Z,3.70
2022-09-30T19:39:45.495Z,3.40
2022-09-30T19:42:32.394Z,3.85
2022-09-30T19:45:24.344Z,3.75
2022-09-30T19:48:10.232Z,3.88
2022-09-30T19:51:04.393Z,3.58
2022-09-30T19:54:02.976Z,3.60
2022-09-30T19:56:51.251Z,3.70
2022-09-30T19:59:36.905Z,4.38
2022-09-30T20:02:23.162Z,6.80
2022-09-30T20:05:09.291Z,6.35
2022-09-30T20:07:54.846Z,4.63
2022-09-30T20:10:40.787Z,4.38
2022-09-30T20:13:26.559Z,4.50
2022-09-30T20:16:14.343Z,5.30
2022-09-30T20:18:59.799Z,5.30
2022-09-30T20:21:46.697Z,5.40
2022-09-30T20:24:32.424Z,5.20
2022-09-30T20:27:17.845Z,5.35
2022-09-30T20:30:03.465Z,5.10
2022-09-30T20:32:48.997Z,5.10
2022-09-30T20:35:36.753Z,4.78
2022-09-30T20:38:24.867Z,5.47
2022-09-30T20:41:10.843Z,5.63
2022-09-30T20:43:56.407Z,4.60
2022-09-30T20:46:41.984Z,5.13
2022-09-30T20:49:28.632Z,6.82
2022-09-30T20:52:14.667Z,6.82
2022-09-30T20:55:00.727Z,6.50
2022-09-30T20:57:46.243Z,8.30
2022-09-30T21:00:33.743Z,8.52
2022-09-30T21:03:19.175Z,6.00
2022-09-30T21:06:13.083Z,4.88
2022-09-30T21:09:00.764Z,4.78
2022-09-30T21:11:46.108Z,4.45
2022-09-30T21:14:31.964Z,4.38
2022-09-30T21:17:17.371Z,4.22
2022-09-30T21:20:02.797Z,4.18
2022-09-30T21:22:48.186Z,4.40
2022-09-30T21:25:33.811Z,4.40
2022-09-30T21:28:19.282Z,4.70
2022-09-30T21:31:14.847Z,4.85
2022-09-30T21:34:01.470Z,4.72
2022-09-30T21:36:49.241Z,4.82
2022-09-30T21:39:34.474Z,4.20
2022-09-30T21:42:20.312Z,4.43
2022-09-30T21:45:06.156Z,4.50
2022-09-30T21:47:51.633Z,4.72
2022-09-30T21:50:37.741Z,5.47
2022-09-30T21:53:27.257Z,5.22
2022-09-30T21:56:12.496Z,5.38
2022-09-30T21:58:58.248Z,4.60
2022-09-30T22:01:43.770Z,4.65
2022-09-30T22:04:29.213Z,4.38
2022-09-30T22:07:16.102Z,4.40
2022-09-30T22:10:01.820Z,4.63
2022-09-30T22:12:49.630Z,4.18
2022-09-30T22:15:34.960Z,4.45
2022-09-30T22:18:20.946Z,4.45
2022-09-30T22:21:09.273Z,4.57
2022-09-30T22:23:54.910Z,4.43
2022-09-30T22:26:41.574Z,5.55
2022-09-30T22:29:27.443Z,5.70
2022-09-30T22:32:12.878Z,5.10
2022-09-30T22:35:17.036Z,4.88
2022-09-30T22:38:14.661Z,4.57
2022-09-30T22:41:00.444Z,5.07
2022-09-30T22:43:46.387Z,5.47
2022-09-30T22:46:39.477Z,5.15
2022-09-30T22:49:25.364Z,5.07
2022-09-30T22:52:11.048Z,5.50
2022-09-30T22:54:57.049Z,5.82
2022-09-30T22:57:43.294Z,5.50
2022-09-30T23:00:29.063Z,5.15
2022-09-30T23:03:14.305Z,5.68
2022-09-30T23:06:01.231Z,5.03
2022-09-30T23:08:47.415Z,5.47
2022-09-30T23:11:33.304Z,5.40
2022-09-30T23:14:20.038Z,5.75
2022-09-30T23:17:05.567Z,5.40
2022-09-30T23:19:51.074Z,5.15
2022-09-30T23:22:36.450Z,5.53
2022-09-30T23:25:21.823Z,5.55
2022-09-30T23:28:07.757Z,5.43
2022-09-30T23:30:53.341Z,5.70
2022-09-30T23:33:46.658Z,5.75
2022-09-30T23:36:35.861Z,5.78
2022-09-30T23:39:21.900Z,6.18
2022-09-30T23:42:07.626Z,6.07
2022-09-30T23:44:53.198Z,5.40
2022-09-30T23:47:38.806Z,5.72
2022-09-30T23:50:25.599Z,5.15
2022-09-30T23:53:11.004Z,5.70
2022-09-30T23:55:58.095Z,5.78
2022-09-30T23:58:45.117Z,6.20
